Time;durP1;ratioP1;P1;durP2;ratioP2;P2;SDS_P1;SDS_P2;PMS_P1;PMS_P2;Temp;Humidity;BMP_temperature;BMP_pressure;BME280_temperature;BME280_humidity;BME280_pressure;Samples;Min_cycle;Max_cycle;Signal;HPM_P1;HPM_P2
2024/02/27 00:00:36;;;;;;;1.50;1.20;;;;;;;9.18;82.94;153717.13;5109539;27;20875;-86
2024/02/27 00:03:03;;;;;;;3.27;1.17;;;;;;;9.17;83.62;153714.50;5094525;28;20806;-86
2024/02/27 00:05:30;;;;;;;1.83;1.40;;;;;;;9.13;84.28;153704.19;5098625;28;20424;-86
2024/02/27 00:07:56;;;;;;;1.20;1.00;;;;;;;9.12;84.53;153701.59;5110917;28;20501;-86
2024/02/27 00:10:23;;;;;;;1.77;1.30;;;;;;;9.12;84.21;153701.59;5110356;27;20452;-85
2024/02/27 00:12:49;;;;;;;1.53;1.10;;;;;;;9.13;84.20;153704.19;5108548;28;20510;-86
2024/02/27 00:15:16;;;;;;;1.73;1.00;;;;;;;9.11;84.28;153698.97;5108831;28;20464;-86
2024/02/27 00:17:43;;;;;;;2.40;1.27;;;;;;;9.13;84.27;153704.19;5078705;28;20535;-86
2024/02/27 00:20:11;;;;;;;2.07;0.93;;;;;;;9.12;83.90;153702.88;5079450;28;20457;-86
2024/02/27 00:22:37;;;;;;;1.40;1.00;;;;;;;9.13;83.89;153704.19;5105065;28;20471;-86
2024/02/27 00:25:05;;;;;;;1.60;1.30;;;;;;;9.15;83.93;153710.66;5112355;28;20436;-86
2024/02/27 00:27:31;;;;;;;1.50;1.10;;;;;;;9.11;84.65;153698.97;5099851;28;20452;-86
2024/02/27 00:29:58;;;;;;;2.33;1.27;;;;;;;9.14;84.06;153708.03;5082569;28;20440;-86
2024/02/27 00:32:24;;;;;;;2.33;1.27;;;;;;;9.15;84.02;153709.34;5092590;28;20440;-86
2024/02/27 00:34:52;;;;;;;1.83;1.20;;;;;;;9.15;83.98;153710.66;5071532;28;20959;-86
2024/02/27 00:37:18;;;;;;;1.40;1.20;;;;;;;9.14;84.03;153708.03;5104371;28;20445;-86
2024/02/27 00:39:45;;;;;;;1.47;1.10;;;;;;;9.12;84.19;153702.88;5092044;28;20424;-86
2024/02/27 00:42:12;;;;;;;1.40;1.27;;;;;;;9.09;84.79;153693.81;5109848;28;20440;-86
2024/02/27 00:44:40;;;;;;;2.00;1.10;;;;;;;9.07;85.81;153688.66;5097539;28;20449;-86
2024/02/27 00:47:07;;;;;;;1.17;1.00;;;;;;;9.03;86.88;153678.28;5090257;28;20464;-86
2024/02/27 00:49:34;;;;;;;1.97;1.30;;;;;;;8.98;87.93;153665.34;5101828;28;20439;-86
2024/02/27 00:52:02;;;;;;;1.70;1.10;;;;;;;8.97;88.12;153662.81;5110253;28;20927;-86
2024/02/27 00:54:29;;;;;;;1.40;0.90;;;;;;;8.95;88.34;153657.59;5093579;28;20440;-86
2024/02/27 00:56:55;;;;;;;1.70;1.20;;;;;;;8.97;88.63;153662.81;5109801;28;20931;-86
2024/02/27 00:59:22;;;;;;;1.70;1.37;;;;;;;8.99;90.15;153667.97;5109384;28;20846;-85
2024/02/27 01:01:48;;;;;;;1.80;1.50;;;;;;;8.95;90.77;153657.59;5110364;28;20428;-85
2024/02/27 01:04:15;;;;;;;1.63;1.40;;;;;;;8.93;91.02;153652.44;5110586;28;20433;-86
2024/02/27 01:06:41;;;;;;;3.60;1.90;;;;;;;8.89;91.10;153642.13;5092097;28;20837;-86
2024/02/27 01:09:10;;;;;;;3.17;1.13;;;;;;;8.87;90.83;153636.94;5111017;28;20463;-86
2024/02/27 01:11:36;;;;;;;1.80;1.30;;;;;;;8.90;90.12;153644.66;5083438;28;20448;-86
2024/02/27 01:14:03;;;;;;;2.20;1.07;;;;;;;8.92;89.88;153649.88;5095937;28;20448;-86
2024/02/27 01:16:29;;;;;;;1.37;1.00;;;;;;;8.92;89.59;153649.88;5109461;28;20529;-86
2024/02/27 01:18:56;;;;;;;1.57;1.00;;;;;;;8.92;89.57;153649.88;5110415;28;21150;-86
2024/02/27 01:21:22;;;;;;;1.70;1.30;;;;;;;8.89;90.44;153642.13;5074796;28;20440;-86
2024/02/27 01:23:49;;;;;;;2.23;1.33;;;;;;;8.85;90.76;153631.75;5110005;28;20440;-86
2024/02/27 01:26:16;;;;;;;2.47;1.50;;;;;;;8.78;90.69;153614.97;5124250;27;20447;-86
2024/02/27 01:28:43;;;;;;;1.43;1.00;;;;;;;8.77;91.15;153612.34;5091273;28;20440;-86
2024/02/27 01:31:09;;;;;;;1.70;1.20;;;;;;;8.75;91.53;153605.91;5100334;28;20499;-86
2024/02/27 01:33:36;;;;;;;1.20;0.90;;;;;;;8.73;91.96;153600.72;5107302;28;20487;-86
2024/02/27 01:36:03;;;;;;;1.93;1.20;;;;;;;8.71;92.37;153595.56;5085435;28;20548;-85
2024/02/27 01:38:30;;;;;;;1.60;1.03;;;;;;;8.68;92.23;153587.81;5101809;28;20520;-85
2024/02/27 01:40:56;;;;;;;1.60;1.03;;;;;;;8.65;92.82;153580.03;5103801;28;20432;-86
2024/02/27 01:43:25;;;;;;;1.80;1.43;;;;;;;8.63;92.81;153576.13;5066996;28;20455;-86
2024/02/27 01:45:53;;;;;;;1.90;1.60;;;;;;;8.61;93.59;153569.69;5111986;28;20440;-86
2024/02/27 01:48:20;;;;;;;1.70;1.10;;;;;;;8.57;94.26;153561.97;5094967;28;20535;-86
2024/02/27 01:50:47;;;;;;;1.53;0.90;;;;;;;8.59;95.30;153565.81;5113021;28;20451;-85
2024/02/27 01:53:13;;;;;;;3.00;1.10;;;;;;;8.55;95.90;153555.50;5102714;28;20436;-85
2024/02/27 01:55:40;;;;;;;1.50;1.20;;;;;;;8.50;97.15;153543.84;5077670;28;20460;-85
2024/02/27 01:58:07;;;;;;;1.73;1.50;;;;;;;8.42;97.80;153523.16;5086317;28;20529;-86
2024/02/27 02:00:35;;;;;;;1.90;1.27;;;;;;;8.39;99.08;153514.13;5112351;28;20471;-86
2024/02/27 02:03:02;;;;;;;1.90;1.57;;;;;;;8.37;99.52;153510.22;5093096;28;20457;-86
2024/02/27 02:05:29;;;;;;;1.67;1.23;;;;;;;8.33;100.00;153498.63;5074103;28;20437;-86
2024/02/27 02:07:55;;;;;;;1.97;1.50;;;;;;;8.28;100.00;153485.69;5089411;28;20448;-86
2024/02/27 02:10:22;;;;;;;3.07;1.77;;;;;;;8.28;100.00;153485.69;5070650;28;20531;-86
2024/02/27 02:12:49;;;;;;;1.87;1.53;;;;;;;8.25;100.00;153479.19;5080767;28;20441;-86
2024/02/27 02:15:16;;;;;;;3.43;1.70;;;;;;;8.27;100.00;153484.41;5092338;28;20518;-86
2024/02/27 02:17:44;;;;;;;2.10;1.40;;;;;;;8.25;100.00;153479.19;5069926;28;20441;-86
2024/02/27 02:20:16;;;;;;;4.50;1.73;;;;;;;8.23;100.00;153474.03;5080352;28;20902;-86
2024/02/27 02:22:43;;;;;;;1.73;1.30;;;;;;;8.26;100.00;153480.50;5079111;28;20553;-85
2024/02/27 02:25:11;;;;;;;2.40;1.60;;;;;;;8.25;100.00;153477.88;5092231;28;20483;-86
2024/02/27 02:27:39;;;;;;;2.40;1.93;;;;;;;8.22;100.00;153471.44;5081070;28;20830;-86
2024/02/27 02:30:09;;;;;;;4.83;2.03;;;;;;;8.23;100.00;153474.03;5079253;28;20449;-86
2024/02/27 02:32:36;;;;;;;2.10;1.60;;;;;;;8.21;100.00;153468.81;5092130;28;20433;-86
2024/02/27 02:35:03;;;;;;;3.37;2.30;;;;;;;8.20;100.00;153466.28;5084961;28;20436;-85
2024/02/27 02:37:31;;;;;;;2.67;2.20;;;;;;;8.21;100.00;153467.50;5080974;28;21107;-86
2024/02/27 02:39:59;;;;;;;3.10;2.43;;;;;;;8.22;100.00;153471.44;5088372;28;20460;-86
2024/02/27 02:42:26;;;;;;;2.77;2.23;;;;;;;8.23;100.00;153474.03;5085140;28;20472;-86
2024/02/27 02:44:52;;;;;;;2.90;2.50;;;;;;;8.23;100.00;153472.72;5081270;28;20439;-85
2024/02/27 02:47:20;;;;;;;2.63;2.40;;;;;;;8.20;100.00;153464.97;5077064;28;20464;-87
2024/02/27 02:49:47;;;;;;;3.93;2.50;;;;;;;8.13;100.00;153448.13;5077881;28;20463;-85
2024/02/27 02:52:13;;;;;;;3.80;2.87;;;;;;;8.10;100.00;153440.38;5088657;28;20437;-86
2024/02/27 02:54:41;;;;;;;3.80;2.47;;;;;;;8.11;100.00;153441.69;5084848;28;20464;-86
2024/02/27 02:57:08;;;;;;;4.17;3.10;;;;;;;8.13;99.39;153448.13;5084966;28;20481;-86
2024/02/27 02:59:35;;;;;;;4.13;3.10;;;;;;;8.07;97.18;153432.66;5083129;27;20434;-84
2024/02/27 03:02:01;;;;;;;4.00;3.00;;;;;;;8.05;96.08;153427.47;5119050;27;20431;-85
2024/02/27 03:04:28;;;;;;;4.53;3.43;;;;;;;8.03;94.91;153422.31;5098916;28;20521;-85
2024/02/27 03:06:54;;;;;;;4.80;3.90;;;;;;;8.03;94.24;153422.31;5104521;28;20490;-85
2024/02/27 03:09:21;;;;;;;5.90;4.27;;;;;;;8.02;93.63;153418.44;5108565;27;20501;-85
2024/02/27 03:11:49;;;;;;;7.10;4.53;;;;;;;7.98;92.07;153409.41;5101021;27;20432;-86
2024/02/27 03:14:16;;;;;;;8.53;4.23;;;;;;;7.95;92.31;153402.94;5123908;27;20462;-85
2024/02/27 03:16:44;;;;;;;6.90;4.67;;;;;;;7.93;91.17;153396.47;5093286;28;20463;-86
2024/02/27 03:19:11;;;;;;;6.83;4.20;;;;;;;7.92;90.15;153393.88;5093513;28;20444;-86
2024/02/27 03:21:38;;;;;;;5.90;4.20;;;;;;;7.90;89.42;153388.72;5072850;28;20442;-86
2024/02/27 03:24:05;;;;;;;5.50;4.40;;;;;;;7.92;89.38;153395.19;5104058;28;20792;-87
2024/02/27 03:26:31;;;;;;;6.20;4.47;;;;;;;7.91;88.96;153392.63;5111219;28;20914;-86
2024/02/27 03:28:59;;;;;;;5.30;4.23;;;;;;;7.91;89.26;153391.31;5110904;28;20451;-86
2024/02/27 03:31:26;;;;;;;5.57;4.10;;;;;;;7.88;89.38;153383.56;5086051;27;20435;-85
2024/02/27 03:33:52;;;;;;;6.30;4.93;;;;;;;7.86;89.16;153378.41;5121549;27;20444;-86
2024/02/27 03:36:19;;;;;;;6.73;4.87;;;;;;;7.86;89.24;153378.41;5100540;27;20459;-86
2024/02/27 03:38:45;;;;;;;7.10;5.70;;;;;;;7.84;89.14;153374.50;5106821;27;20527;-85
2024/02/27 03:41:12;;;;;;;6.70;4.90;;;;;;;7.77;88.81;153356.44;5099135;27;20490;-86
2024/02/27 03:43:39;;;;;;;6.97;4.83;;;;;;;7.73;87.83;153344.81;5103292;27;20508;-85
2024/02/27 03:46:07;;;;;;;9.13;5.30;;;;;;;7.76;87.87;153353.84;5102089;27;20938;-85
2024/02/27 03:48:33;;;;;;;7.23;5.77;;;;;;;7.77;87.24;153355.13;5097953;28;20981;-85
2024/02/27 03:51:00;;;;;;;5.27;4.47;;;;;;;7.76;86.73;153352.53;5075641;28;20493;-84
2024/02/27 03:53:28;;;;;;;6.60;4.67;;;;;;;7.77;86.46;153355.13;5078014;27;20452;-86
2024/02/27 03:55:55;;;;;;;7.97;5.23;;;;;;;7.78;86.67;153357.72;5084283;28;20464;-85
2024/02/27 03:58:22;;;;;;;6.50;5.47;;;;;;;7.77;86.42;153355.13;5087932;27;20807;-85
2024/02/27 04:00:48;;;;;;;6.27;4.87;;;;;;;7.77;86.94;153355.13;5090036;28;20472;-85
2024/02/27 04:03:16;;;;;;;8.27;5.23;;;;;;;7.77;87.64;153356.44;5088548;28;20527;-85
2024/02/27 04:05:43;;;;;;;8.97;6.00;;;;;;;7.77;88.04;153356.44;5091237;28;20456;-85
2024/02/27 04:08:09;;;;;;;7.43;5.33;;;;;;;7.77;88.08;153356.44;5089773;28;20931;-85
2024/02/27 04:10:36;;;;;;;7.00;4.53;;;;;;;7.76;88.49;153352.53;5088733;28;20425;-85
2024/02/27 04:13:03;;;;;;;7.43;5.63;;;;;;;7.71;88.65;153339.63;5089944;28;20445;-85
2024/02/27 04:15:30;;;;;;;6.83;5.77;;;;;;;7.71;88.67;153339.63;5087630;28;20461;-85
2024/02/27 04:17:57;;;;;;;6.57;5.37;;;;;;;7.66;89.36;153328.00;5099584;28;20481;-85
2024/02/27 04:20:25;;;;;;;7.90;5.43;;;;;;;7.66;89.23;153326.72;5090535;28;20433;-85
2024/02/27 04:22:51;;;;;;;9.37;5.60;;;;;;;7.65;89.72;153324.16;5071253;28;20433;-86
2024/02/27 04:25:18;;;;;;;9.80;6.70;;;;;;;7.65;89.38;153324.16;5098757;28;20478;-85
2024/02/27 04:27:44;;;;;;;7.83;6.23;;;;;;;7.62;88.84;153316.41;5096095;28;20448;-85
2024/02/27 04:30:12;;;;;;;7.37;5.67;;;;;;;7.61;89.42;153315.09;5086698;28;20882;-85
2024/02/27 04:32:38;;;;;;;7.80;5.50;;;;;;;7.59;88.77;153308.63;5086098;28;20445;-76
2024/02/27 04:35:06;;;;;;;9.50;6.90;;;;;;;7.59;89.22;153308.63;5087216;28;20437;-78
2024/02/27 04:37:33;;;;;;;6.50;5.90;;;;;;;7.57;88.57;153303.47;5085419;28;20465;-79
2024/02/27 04:40:00;;;;;;;9.10;6.83;;;;;;;7.55;89.08;153298.28;5084026;28;20460;-78
2024/02/27 04:42:26;;;;;;;7.60;6.43;;;;;;;7.53;89.59;153294.44;5099812;28;20445;-79
2024/02/27 04:44:53;;;;;;;8.90;6.63;;;;;;;7.47;89.31;153277.63;5087055;28;20425;-79
2024/02/27 04:47:19;;;;;;;8.50;6.40;;;;;;;7.48;89.61;153280.22;5086825;28;20805;-79
2024/02/27 04:49:46;;;;;;;7.77;6.17;;;;;;;7.44;89.63;153271.16;5082579;28;20457;-78
2024/02/27 04:52:14;;;;;;;9.30;7.03;;;;;;;7.41;89.89;153262.16;5086604;28;20444;-79
2024/02/27 04:54:41;;;;;;;14.00;7.40;;;;;;;7.41;89.78;153262.16;5085832;28;20445;-76
2024/02/27 04:57:08;;;;;;;10.13;7.20;;;;;;;7.39;89.33;153258.25;5083182;28;20970;-76
2024/02/27 04:59:35;;;;;;;8.47;6.37;;;;;;;7.41;89.22;153262.16;5086393;28;20480;-76
2024/02/27 05:02:03;;;;;;;10.13;7.73;;;;;;;7.41;89.06;153262.16;5097962;28;20516;-79
2024/02/27 05:04:30;;;;;;;12.83;7.63;;;;;;;7.39;89.09;153258.25;5088555;28;20470;-79
2024/02/27 05:06:57;;;;;;;10.93;7.37;;;;;;;7.38;89.33;153254.41;5065926;28;20545;-78
2024/02/27 05:09:24;;;;;;;11.83;6.97;;;;;;;7.38;89.51;153255.69;5086655;28;20493;-86
2024/02/27 05:11:52;;;;;;;10.73;8.07;;;;;;;7.39;89.96;153257.00;5098427;28;20440;-87
2024/02/27 05:14:18;;;;;;;8.97;7.53;;;;;;;7.36;90.27;153251.78;5073908;28;20430;-86
2024/02/27 05:16:45;;;;;;;12.90;8.40;;;;;;;7.38;90.23;153254.41;5098548;28;20469;-86
2024/02/27 05:19:11;;;;;;;8.90;6.57;;;;;;;7.38;90.26;153255.69;5075952;28;20456;-87
2024/02/27 05:21:38;;;;;;;9.47;7.10;;;;;;;7.40;90.10;153259.53;5084484;28;20444;-86
2024/02/27 05:24:05;;;;;;;9.50;6.67;;;;;;;7.39;90.22;153257.00;5091409;28;20449;-87
2024/02/27 05:26:32;;;;;;;9.67;7.70;;;;;;;7.37;90.65;153253.09;5084069;28;20456;-86
2024/02/27 05:29:00;;;;;;;10.87;7.30;;;;;;;7.36;90.68;153250.50;5038487;28;20477;-86
2024/02/27 05:31:28;;;;;;;9.90;6.80;;;;;;;7.35;91.15;153247.94;5066598;28;20812;-87
2024/02/27 05:33:56;;;;;;;13.53;7.80;;;;;;;7.32;91.10;153240.19;5074068;28;20460;-87
2024/02/27 05:36:23;;;;;;;10.03;7.83;;;;;;;7.31;91.20;153237.59;5067833;28;20426;-86
2024/02/27 05:38:50;;;;;;;11.40;7.50;;;;;;;7.29;91.70;153232.44;5054535;28;20490;-87
2024/02/27 05:41:17;;;;;;;11.53;8.40;;;;;;;7.24;92.13;153219.53;5090349;28;20449;-86
2024/02/27 05:43:43;;;;;;;10.40;7.20;;;;;;;7.17;92.44;153201.47;5065077;28;21069;-86
2024/02/27 05:46:11;;;;;;;10.47;8.00;;;;;;;7.17;92.59;153202.75;5086693;28;20442;-86
2024/02/27 05:48:38;;;;;;;10.77;8.13;;;;;;;7.17;92.60;153202.75;5077766;28;20449;-86
2024/02/27 05:51:05;;;;;;;13.13;8.77;;;;;;;7.17;92.65;153202.75;5092355;28;20858;-87
2024/02/27 05:53:32;;;;;;;13.93;8.90;;;;;;;7.18;92.72;153205.31;5078870;28;20455;-86
2024/02/27 05:55:59;;;;;;;11.03;8.10;;;;;;;7.20;92.87;153210.47;5080434;28;20573;-86
2024/02/27 05:58:26;;;;;;;17.37;8.20;;;;;;;7.14;93.23;153195.00;5082949;28;20463;-86
2024/02/27 06:00:52;;;;;;;11.83;8.10;;;;;;;7.14;92.97;153193.72;5097056;28;21017;-86
2024/02/27 06:03:20;;;;;;;10.73;7.70;;;;;;;7.14;92.56;153195.00;5118402;27;20472;-87
2024/02/27 06:05:47;;;;;;;10.53;8.90;;;;;;;7.14;92.77;153193.72;5094563;28;20509;-87
2024/02/27 06:08:14;;;;;;;10.07;7.70;;;;;;;7.10;93.21;153184.66;5103089;28;20448;-86
2024/02/27 06:10:41;;;;;;;11.80;9.20;;;;;;;7.08;93.89;153178.19;5118208;27;20556;-87
2024/02/27 06:13:08;;;;;;;12.40;8.30;;;;;;;7.03;93.53;153165.28;5134363;27;20474;-86
2024/02/27 06:15:35;;;;;;;12.47;10.00;;;;;;;7.00;94.05;153158.84;5110212;27;20441;-86
2024/02/27 06:18:02;;;;;;;13.40;9.33;;;;;;;7.01;94.27;153161.44;5103307;27;20463;-86
2024/02/27 06:23:14;;;;;;;14.30;9.60;;;;;;;6.97;93.82;153149.78;5089028;27;20481;-87
2024/02/27 06:25:44;;;;;;;13.70;10.43;;;;;;;6.96;94.36;153148.53;5100078;27;20485;-87
2024/02/27 06:28:19;;;;;;;10.33;8.93;;;;;;;6.92;94.29;153136.88;5115422;27;20456;-87
2024/02/27 06:30:46;;;;;;;12.83;9.47;;;;;;;6.91;94.45;153134.34;5108748;27;20543;-87
2024/02/27 06:33:13;;;;;;;13.17;9.57;;;;;;;6.91;94.65;153135.59;5095903;27;20530;-87
2024/02/27 06:35:40;;;;;;;15.70;9.47;;;;;;;6.89;94.44;153130.44;5104829;27;20457;-86
2024/02/27 06:38:16;;;;;;;13.87;10.10;;;;;;;6.86;94.72;153122.69;5092556;27;20479;-87
2024/02/27 06:40:44;;;;;;;15.60;9.70;;;;;;;6.85;94.60;153120.13;5100861;27;20465;-88
2024/02/27 06:43:11;;;;;;;12.57;9.37;;;;;;;6.86;94.89;153122.69;5095210;27;20460;-88
2024/02/27 06:45:38;;;;;;;12.90;9.90;;;;;;;6.85;95.22;153120.13;5108800;27;20529;-87
2024/02/27 06:48:09;;;;;;;15.80;10.90;;;;;;;6.85;95.26;153118.81;5087370;27;20463;-87
2024/02/27 06:50:35;;;;;;;16.00;10.43;;;;;;;6.83;95.28;153114.94;5087879;28;20464;-87
2024/02/27 06:53:04;;;;;;;13.80;9.70;;;;;;;6.81;95.17;153109.78;5092394;28;20463;-87
2024/02/27 06:55:31;;;;;;;16.30;11.40;;;;;;;6.79;95.21;153104.63;5081596;27;20877;-87
2024/02/27 06:57:57;;;;;;;14.40;10.20;;;;;;;6.79;94.96;153103.31;5113076;27;20472;-87
2024/02/27 07:00:24;;;;;;;14.83;9.20;;;;;;;6.78;94.91;153102.03;5064222;28;20481;-87
2024/02/27 07:02:50;;;;;;;14.17;9.27;;;;;;;6.75;94.60;153094.31;5111405;27;20540;-88
2024/02/27 07:05:17;;;;;;;15.13;9.90;;;;;;;6.74;94.71;153091.72;5115019;27;20464;-87
2024/02/27 07:07:43;;;;;;;15.77;10.10;;;;;;;6.77;95.38;153098.19;5101838;27;20441;-82
2024/02/27 07:10:13;;;;;;;12.73;10.20;;;;;;;6.72;94.60;153086.56;5090891;28;20879;-82
2024/02/27 07:12:41;;;;;;;15.20;10.80;;;;;;;6.78;93.95;153102.03;5073224;28;20467;-87
2024/02/27 07:15:08;;;;;;;16.40;11.13;;;;;;;6.84;93.91;153116.22;5100148;28;20446;-88
2024/02/27 07:17:35;;;;;;;19.03;10.90;;;;;;;6.84;93.87;153117.53;5082781;28;20481;-87
2024/02/27 07:20:03;;;;;;;17.83;11.30;;;;;;;6.82;94.23;153111.06;5086860;28;20472;-87
2024/02/27 07:22:31;;;;;;;15.47;11.30;;;;;;;6.85;93.79;153120.13;5092788;28;20456;-87
2024/02/27 07:24:57;;;;;;;16.73;11.17;;;;;;;6.87;93.77;153123.97;5087874;28;20458;-86
2024/02/27 07:27:25;;;;;;;14.80;11.30;;;;;;;6.88;94.04;153127.88;5087393;28;20452;-88
2024/02/27 07:29:51;;;;;;;18.50;13.00;;;;;;;6.90;92.92;153131.72;5079648;28;20466;-87
2024/02/27 07:32:18;;;;;;;16.50;11.47;;;;;;;6.92;93.41;153138.19;5098503;28;20818;-87
2024/02/27 07:34:46;;;;;;;17.87;11.27;;;;;;;6.93;93.29;153140.78;5089511;28;20455;-87
2024/02/27 07:37:14;;;;;;;17.23;12.00;;;;;;;6.95;93.78;153145.94;5073184;28;20473;-87
2024/02/27 07:39:41;;;;;;;16.93;12.20;;;;;;;6.95;92.86;153145.94;5087310;28;20538;-87
2024/02/27 07:42:07;;;;;;;14.50;11.90;;;;;;;6.97;93.79;153149.78;5094809;28;20463;-87
2024/02/27 07:44:35;;;;;;;18.70;12.37;;;;;;;6.99;93.20;153155.00;5100758;28;20526;-87
2024/02/27 07:47:02;;;;;;;14.70;12.20;;;;;;;7.02;92.95;153164.00;5084410;28;21297;-86
2024/02/27 07:49:28;;;;;;;18.03;12.10;;;;;;;7.04;92.87;153169.16;5089798;28;20456;-86
2024/02/27 07:51:55;;;;;;;16.90;11.47;;;;;;;7.01;92.53;153161.44;5068250;28;20550;-87
2024/02/27 07:54:22;;;;;;;17.07;11.70;;;;;;;7.08;92.46;153178.19;5084363;28;20514;-87
2024/02/27 07:56:48;;;;;;;17.37;12.70;;;;;;;7.13;92.51;153192.41;5070693;28;20452;-86
2024/02/27 07:59:15;;;;;;;17.77;11.97;;;;;;;7.16;91.95;153200.16;5080634;28;20484;-87
2024/02/27 08:01:43;;;;;;;16.57;11.70;;;;;;;7.22;91.92;153214.38;5094851;28;20870;-87
2024/02/27 08:04:09;;;;;;;18.57;11.87;;;;;;;7.28;92.42;153231.13;5097200;28;20460;-87
2024/02/27 08:06:38;;;;;;;16.07;11.40;;;;;;;7.31;91.43;153237.59;5092734;28;21030;-87
2024/02/27 08:09:05;;;;;;;19.23;12.20;;;;;;;7.34;90.69;153246.63;5089420;28;20453;-87
2024/02/27 08:11:31;;;;;;;16.77;12.50;;;;;;;7.38;90.68;153254.41;5089405;28;20482;-87
2024/02/27 08:14:00;;;;;;;15.60;11.80;;;;;;;7.35;90.24;153249.25;5092557;28;20461;-87
2024/02/27 08:16:26;;;;;;;16.57;12.20;;;;;;;7.42;90.39;153264.69;5097240;28;20445;-88
2024/02/27 08:18:54;;;;;;;18.80;12.07;;;;;;;7.43;89.52;153267.31;5086912;28;20580;-87
2024/02/27 08:21:21;;;;;;;18.60;13.03;;;;;;;7.44;89.57;153269.91;5103315;28;20485;-85
2024/02/27 08:23:47;;;;;;;17.60;12.07;;;;;;;7.48;89.68;153280.22;5088797;28;20460;-88
2024/02/27 08:26:14;;;;;;;16.50;11.63;;;;;;;7.48;89.65;153280.22;5089428;28;20459;-87
2024/02/27 08:28:41;;;;;;;15.77;11.23;;;;;;;7.50;89.79;153286.66;5076873;28;20514;-87
2024/02/27 08:31:07;;;;;;;18.07;12.07;;;;;;;7.54;89.14;153295.72;5091084;28;20480;-86
2024/02/27 08:33:34;;;;;;;15.90;11.93;;;;;;;7.58;89.47;153306.03;5095727;28;20465;-86
2024/02/27 08:36:02;;;;;;;15.87;11.43;;;;;;;7.54;89.21;153295.72;5091285;28;20518;-88
2024/02/27 08:38:30;;;;;;;16.57;12.57;;;;;;;7.48;88.79;153280.22;5065203;28;20559;-86
2024/02/27 08:40:56;;;;;;;17.10;12.73;;;;;;;7.49;89.75;153284.13;5091365;28;20460;-86
2024/02/27 08:43:23;;;;;;;22.57;12.63;;;;;;;7.51;90.55;153287.97;5096668;28;20464;-86
2024/02/27 08:45:49;;;;;;;19.10;13.17;;;;;;;7.59;91.19;153308.63;5079157;28;20453;-86
2024/02/27 08:48:16;;;;;;;17.87;13.57;;;;;;;7.66;91.25;153326.72;5091759;28;20510;-87
2024/02/27 08:50:45;;;;;;;17.73;12.27;;;;;;;7.70;91.03;153338.38;5093698;28;20821;-86
2024/02/27 08:53:13;;;;;;;19.50;13.73;;;;;;;7.75;91.28;153349.97;5078628;28;20515;-86
2024/02/27 08:55:40;;;;;;;17.40;12.77;;;;;;;7.75;90.88;153351.28;5087738;28;20495;-86
2024/02/27 08:58:06;;;;;;;20.37;12.83;;;;;;;7.75;90.34;153349.97;5088606;28;20480;-86
2024/02/27 09:00:33;;;;;;;20.23;13.23;;;;;;;7.73;89.91;153346.06;5084860;28;20477;-87
2024/02/27 09:02:59;;;;;;;18.90;13.73;;;;;;;7.72;90.56;153342.22;5091306;28;20456;-85
2024/02/27 09:05:26;;;;;;;17.97;11.00;;;;;;;7.73;91.04;153344.81;5088328;28;20449;-87
2024/02/27 09:07:53;;;;;;;16.10;12.40;;;;;;;7.77;91.13;153355.13;5099207;28;20450;-86
2024/02/27 09:10:20;;;;;;;16.43;13.00;;;;;;;7.77;90.59;153356.44;5093965;28;21182;-86
2024/02/27 09:12:47;;;;;;;17.57;12.20;;;;;;;7.75;90.86;153351.28;5102155;27;20453;-86
2024/02/27 09:15:15;;;;;;;22.00;14.80;;;;;;;7.73;90.33;153344.81;5105879;27;20586;-87
2024/02/27 09:17:41;;;;;;;17.50;13.30;;;;;;;7.69;91.39;153334.47;5067627;28;21031;-86
2024/02/27 09:20:09;;;;;;;16.73;12.87;;;;;;;7.78;91.38;153357.72;5088108;28;20509;-86
2024/02/27 09:22:36;;;;;;;15.43;11.73;;;;;;;7.80;90.93;153364.19;5078705;28;20959;-86
2024/02/27 09:25:03;;;;;;;16.67;11.97;;;;;;;7.86;91.83;153378.41;5099176;27;20869;-86
2024/02/27 09:27:34;;;;;;;17.60;13.10;;;;;;;7.87;92.05;153380.97;5088348;28;20945;-87
2024/02/27 09:30:00;;;;;;;18.20;13.37;;;;;;;7.90;92.23;153390.03;5078599;28;20453;-86
2024/02/27 09:32:27;;;;;;;17.23;13.00;;;;;;;7.87;91.85;153382.25;5075639;28;21008;-86
2024/02/27 09:34:54;;;;;;;18.57;13.40;;;;;;;7.79;91.67;153361.59;5077920;28;20468;-86
2024/02/27 09:37:23;;;;;;;19.07;12.97;;;;;;;7.77;92.76;153355.13;5073944;28;21000;-86
2024/02/27 09:39:53;;;;;;;15.57;11.30;;;;;;;7.76;93.56;153352.53;5097304;28;20488;-86
2024/02/27 09:42:21;;;;;;;20.23;13.37;;;;;;;7.76;93.65;153353.84;5097854;28;20456;-86
2024/02/27 09:44:52;;;;;;;17.23;13.40;;;;;;;7.72;93.14;153342.22;5083071;28;20451;-86
2024/02/27 09:47:19;;;;;;;19.13;14.17;;;;;;;7.71;94.31;153339.63;5092559;28;20444;-86
2024/02/27 09:49:46;;;;;;;16.30;12.80;;;;;;;7.73;94.55;153344.81;5075961;28;20817;-86
2024/02/27 09:52:19;;;;;;;19.90;13.73;;;;;;;7.80;95.10;153362.88;5092707;28;20892;-85
2024/02/27 09:54:46;;;;;;;15.80;11.70;;;;;;;7.80;94.63;153364.19;5097778;28;20479;-78
2024/02/27 09:57:13;;;;;;;19.57;13.20;;;;;;;7.79;93.91;153361.59;5088474;28;20862;-78
2024/02/27 09:59:40;;;;;;;19.40;13.27;;;;;;;7.83;94.90;153371.94;5102561;27;20499;-77
2024/02/27 10:02:12;;;;;;;19.03;13.20;;;;;;;7.93;94.98;153397.78;5082525;27;20451;-77
2024/02/27 10:04:39;;;;;;;20.07;14.00;;;;;;;7.95;94.46;153401.63;5092473;27;20551;-77
2024/02/27 10:07:08;;;;;;;19.57;14.43;;;;;;;7.96;94.28;153404.22;5096698;28;20539;-77
2024/02/27 10:09:36;;;;;;;19.50;14.27;;;;;;;7.98;93.98;153409.41;5114366;27;20444;-77
2024/02/27 10:12:02;;;;;;;21.47;13.20;;;;;;;8.00;93.78;153414.53;5113909;27;21083;-77
2024/02/27 10:14:31;;;;;;;20.20;13.57;;;;;;;8.01;93.53;153417.16;5081886;27;20456;-77
2024/02/27 10:16:58;;;;;;;18.43;13.50;;;;;;;8.05;93.64;153427.47;5094257;27;20459;-77
2024/02/27 10:19:28;;;;;;;18.97;13.10;;;;;;;8.10;93.67;153440.38;5085562;27;20877;-77
2024/02/27 10:21:55;;;;;;;17.83;13.00;;;;;;;8.13;93.27;153446.88;5111652;27;20513;-77
2024/02/27 10:24:28;;;;;;;17.60;12.40;;;;;;;8.09;92.63;153437.81;5081978;27;20619;-78
2024/02/27 10:26:55;;;;;;;18.23;13.57;;;;;;;8.10;93.16;153440.38;5081082;27;20506;-77
2024/02/27 10:29:22;;;;;;;19.77;14.67;;;;;;;8.14;93.37;153449.44;5115185;27;20830;-77
2024/02/27 10:31:50;;;;;;;16.90;13.17;;;;;;;8.14;92.72;153449.44;5117231;27;20455;-77
2024/02/27 10:34:16;;;;;;;18.40;13.70;;;;;;;8.13;92.90;153448.13;5110917;27;20453;-76
2024/02/27 10:36:44;;;;;;;19.07;13.50;;;;;;;8.10;93.15;153440.38;5101193;27;20458;-77
2024/02/27 10:39:12;;;;;;;16.77;13.50;;;;;;;8.07;92.83;153432.66;5112746;27;20529;-77
2024/02/27 10:41:39;;;;;;;20.50;13.47;;;;;;;8.04;93.06;153424.91;5112535;27;20863;-77
2024/02/27 10:44:08;;;;;;;20.27;13.67;;;;;;;8.04;93.40;153424.91;5110212;27;20559;-77
2024/02/27 10:46:35;;;;;;;20.17;15.37;;;;;;;8.09;93.43;153437.81;5100023;27;20451;-77
2024/02/27 10:49:02;;;;;;;18.50;13.50;;;;;;;8.18;93.68;153461.06;5112086;27;20570;-76
2024/02/27 10:51:28;;;;;;;15.60;12.97;;;;;;;8.17;93.27;153458.50;5112153;27;20444;-79
2024/02/27 10:54:00;;;;;;;17.80;14.20;;;;;;;8.17;93.16;153458.50;5113940;27;20541;-79
2024/02/27 10:56:27;;;;;;;19.87;14.10;;;;;;;8.22;93.48;153471.44;5063681;28;20440;-79
2024/02/27 10:58:54;;;;;;;22.97;15.83;;;;;;;8.25;91.90;153479.19;5077078;27;20497;-79
2024/02/27 11:01:22;;;;;;;23.60;15.50;;;;;;;8.27;91.85;153484.41;5109155;27;20464;-79
2024/02/27 11:03:50;;;;;;;20.07;14.07;;;;;;;8.30;92.75;153490.84;5090456;27;20449;-79
2024/02/27 11:06:21;;;;;;;19.83;14.77;;;;;;;8.31;92.37;153493.47;5115371;27;20551;-78
2024/02/27 11:08:50;;;;;;;18.57;14.77;;;;;;;8.37;92.71;153510.22;5112354;27;20509;-79
2024/02/27 11:11:18;;;;;;;23.30;16.10;;;;;;;8.49;92.37;153541.28;5112444;27;20444;-76
2024/02/27 11:13:46;;;;;;;19.77;15.10;;;;;;;8.51;91.37;153545.13;5097049;27;20453;-76
2024/02/27 11:16:15;;;;;;;20.10;15.27;;;;;;;8.55;91.46;153556.75;5111953;27;20448;-76
2024/02/27 11:18:44;;;;;;;17.60;14.57;;;;;;;8.60;90.96;153567.13;5111290;27;20485;-79
2024/02/27 11:21:10;;;;;;;21.90;15.10;;;;;;;8.61;91.30;153569.69;5086377;27;20553;-76
2024/02/27 11:23:37;;;;;;;20.07;15.17;;;;;;;8.68;91.24;153589.13;5110048;27;21001;-78
2024/02/27 11:26:03;;;;;;;22.90;15.67;;;;;;;8.76;90.99;153608.50;5080233;27;20459;-79